PWSweather.com
Personal Weather Stations
Station Observations
ABQWX
Albuquerque, NM 87110

Albuquerque, NM 87110

Lat: 35.1305, Lon: -106.58571

Elevation: 5210

Station Type: LaCrosse

http://www.albuquerqueweather.info/

High Low Average
Temperature 96.6°F35.9°C 63.5°F17.5°C 80.9°F27.2°C
Dew Point 44.9°F7.2°C 38.8°F3.8°C 42.0°F5.6°C
Winds 6.0 mph 9.7 kmh 0.1 mph 0.2 kmh 2.0 mph S3.2 kmh S
Wind Gusts 10.7 mph17.2 kmh 0.4 mph0.6 kmh 4.0 mph6.4 kmh
Humidity 44% 16% 27%
Pressure 30.08 in1018.6 mb 29.96 in1014.6 mb -
Precipitation 0.00 in0.0 mm - -
Hour Temp Dew Point Humidity Winds Wind Gusts Pressure Precip Precip Rate Daily Precip Total
12:00 AM 75.0°F23.9°C 40.6°F4.8°C 29% 2.0 mph E3.2 kmh E 3.4 mph5.5 kmh 29.99 in1015.6 mb 0.00 in0.0 mm 0.00 in/hr0.0 mm/hr 0.00 in0.0 mm
01:00 AM 74.1°F23.4°C 39.8°F4.3°C 29% 2.3 mph E3.7 kmh E 5.1 mph8.2 kmh 30.01 in1016.3 mb 0.00 in0.0 mm 0.00 in/hr0.0 mm/hr 0.00 in0.0 mm
02:00 AM 74.5°F23.6°C 39.2°F4.0°C 28% 2.4 mph SSW3.9 kmh SSW 7.2 mph11.6 kmh 30.01 in1016.3 mb 0.00 in0.0 mm 0.00 in/hr0.0 mm/hr 0.00 in0.0 mm
03:00 AM 72.0°F22.2°C 38.8°F3.8°C 30% 2.5 mph E4.0 kmh E 4.5 mph7.2 kmh 30.02 in1016.6 mb 0.00 in0.0 mm 0.00 in/hr0.0 mm/hr 0.00 in0.0 mm
04:00 AM 69.6°F20.9°C 39.2°F4.0°C 33% 1.1 mph E1.8 kmh E 2.0 mph3.2 kmh 30.03 in1016.9 mb 0.00 in0.0 mm 0.00 in/hr0.0 mm/hr 0.00 in0.0 mm
05:00 AM 67.3°F19.6°C 40.1°F4.5°C 37% 1.0 mph SSE1.6 kmh SSE 1.6 mph2.6 kmh 30.03 in1016.9 mb 0.00 in0.0 mm 0.00 in/hr0.0 mm/hr 0.00 in0.0 mm
06:00 AM 65.1°F18.4°C 39.5°F4.2°C 39% 0.8 mph S1.3 kmh S 1.8 mph2.9 kmh 30.04 in1017.3 mb 0.00 in0.0 mm 0.00 in/hr0.0 mm/hr 0.00 in0.0 mm
07:00 AM 63.5°F17.5°C 40.0°F4.4°C 42% 0.1 mph SE0.2 kmh SE 0.4 mph0.6 kmh 30.05 in1017.6 mb 0.00 in0.0 mm 0.00 in/hr0.0 mm/hr 0.00 in0.0 mm
08:00 AM 67.3°F19.6°C 44.6°F7.0°C 44% 0.4 mph E0.6 kmh E 1.8 mph2.9 kmh 30.07 in1018.3 mb 0.00 in0.0 mm 0.00 in/hr0.0 mm/hr 0.00 in0.0 mm
09:00 AM 76.1°F24.5°C 44.9°F7.2°C 33% 2.4 mph SE3.9 kmh SE 6.0 mph9.7 kmh 30.08 in1018.6 mb 0.00 in0.0 mm 0.00 in/hr0.0 mm/hr 0.00 in0.0 mm
10:00 AM 82.0°F27.8°C 43.8°F6.6°C 26% 3.1 mph S5.0 kmh S 5.8 mph9.3 kmh 30.08 in1018.6 mb 0.00 in0.0 mm 0.00 in/hr0.0 mm/hr 0.00 in0.0 mm
11:00 AM 86.7°F30.4°C 44.5°F6.9°C 23% 2.1 mph S3.4 kmh S 3.4 mph5.5 kmh 30.07 in1018.3 mb 0.00 in0.0 mm 0.00 in/hr0.0 mm/hr 0.00 in0.0 mm
12:00 PM 89.6°F32.0°C 41.9°F5.5°C 19% 3.1 mph SW5.0 kmh SW 5.6 mph9.0 kmh 30.06 in1017.9 mb 0.00 in0.0 mm 0.00 in/hr0.0 mm/hr 0.00 in0.0 mm
01:00 PM 89.6°F32.0°C 41.9°F5.5°C 19% 2.7 mph N4.3 kmh N 5.4 mph8.7 kmh 30.04 in1017.3 mb 0.00 in0.0 mm 0.00 in/hr0.0 mm/hr 0.00 in0.0 mm
02:00 PM 94.3°F34.6°C 44.3°F6.8°C 18% 3.2 mph S5.1 kmh S 6.0 mph9.7 kmh 30.02 in1016.6 mb 0.00 in0.0 mm 0.00 in/hr0.0 mm/hr 0.00 in0.0 mm
03:00 PM 95.9°F35.5°C 44.1°F6.7°C 17% 6.0 mph SW9.7 kmh SW 10.7 mph17.2 kmh 30.00 in1015.9 mb 0.00 in0.0 mm 0.00 in/hr0.0 mm/hr 0.00 in0.0 mm
04:00 PM 96.6°F35.9°C 43.1°F6.2°C 16% 5.6 mph SW9.0 kmh SW 9.2 mph14.8 kmh 29.98 in1015.2 mb 0.00 in0.0 mm 0.00 in/hr0.0 mm/hr 0.00 in0.0 mm
05:00 PM 95.9°F35.5°C 42.5°F5.8°C 16% 2.1 mph WSW3.4 kmh WSW 3.6 mph5.8 kmh 29.97 in1014.9 mb 0.00 in0.0 mm 0.00 in/hr0.0 mm/hr 0.00 in0.0 mm
06:00 PM 94.3°F34.6°C 41.2°F5.1°C 16% 2.4 mph WNW3.9 kmh WNW 6.0 mph9.7 kmh 29.97 in1014.9 mb 0.00 in0.0 mm 0.00 in/hr0.0 mm/hr 0.00 in0.0 mm
07:00 PM 91.2°F32.9°C 40.3°F4.6°C 17% 3.7 mph WSW6.0 kmh WSW 7.6 mph12.2 kmh 29.96 in1014.6 mb 0.00 in0.0 mm 0.00 in/hr0.0 mm/hr 0.00 in0.0 mm
08:00 PM 86.9°F30.5°C 42.3°F5.7°C 21% 0.4 mph SSW0.6 kmh SSW 1.3 mph2.1 kmh 29.97 in1014.9 mb 0.00 in0.0 mm 0.00 in/hr0.0 mm/hr 0.00 in0.0 mm
09:00 PM 82.4°F28.0°C 43.0°F6.1°C 25% 0.6 mph NE1.0 kmh NE 1.8 mph2.9 kmh 29.99 in1015.6 mb 0.00 in0.0 mm 0.00 in/hr0.0 mm/hr 0.00 in0.0 mm
10:00 PM 79.2°F26.2°C 43.2°F6.2°C 28% 1.3 mph E2.1 kmh E 2.5 mph4.0 kmh 30.01 in1016.3 mb 0.00 in0.0 mm 0.00 in/hr0.0 mm/hr 0.00 in0.0 mm
11:00 PM 75.6°F24.2°C 42.8°F6.0°C 31% 0.4 mph SE0.6 kmh SE 1.1 mph1.8 kmh 30.02 in1016.6 mb 0.00 in0.0 mm 0.00 in/hr0.0 mm/hr 0.00 in0.0 mm